createdAt,value
2019-05-12T00:00:48.177Z,9.30
2019-05-12T00:03:18.869Z,9.30
2019-05-12T00:05:49.208Z,9.30
2019-05-12T00:08:23.562Z,9.30
2019-05-12T00:11:03.047Z,9.30
2019-05-12T00:13:33.124Z,9.30
2019-05-12T00:16:04.334Z,9.30
2019-05-12T00:18:37.744Z,9.30
2019-05-12T00:21:09.624Z,9.30
2019-05-12T00:23:58.267Z,9.20
2019-05-12T00:26:28.358Z,9.20
2019-05-12T00:28:58.812Z,9.20
2019-05-12T00:31:28.591Z,9.20
2019-05-12T00:33:58.818Z,9.20
2019-05-12T00:36:29.360Z,9.10
2019-05-12T00:38:59.440Z,9.10
2019-05-12T00:41:29.520Z,9.10
2019-05-12T00:43:59.593Z,9.10
2019-05-12T00:46:29.484Z,9.10
2019-05-12T00:48:59.436Z,9.10
2019-05-12T00:51:29.373Z,9.10
2019-05-12T00:53:59.118Z,9.10
2019-05-12T00:56:29.081Z,9.10
2019-05-12T00:58:59.154Z,9.20
2019-05-12T01:01:29.219Z,9.10
2019-05-12T01:03:59.126Z,9.00
2019-05-12T01:06:28.997Z,9.10
2019-05-12T01:08:58.967Z,9.10
2019-05-12T01:11:29.026Z,9.10
2019-05-12T01:13:58.969Z,9.10
2019-05-12T01:16:29.073Z,9.00
2019-05-12T01:18:58.989Z,9.00
2019-05-12T01:21:29.058Z,9.00
2019-05-12T01:24:03.264Z,9.00
2019-05-12T01:26:30.380Z,9.00
2019-05-12T01:29:00.140Z,9.10
2019-05-12T01:31:33.049Z,9.10
2019-05-12T01:34:03.220Z,9.10
2019-05-12T01:36:33.232Z,9.10
2019-05-12T01:39:03.305Z,9.10
2019-05-12T01:41:33.242Z,9.10
2019-05-12T01:44:02.981Z,9.10
2019-05-12T01:46:32.973Z,9.00
2019-05-12T01:49:03.048Z,9.00
2019-05-12T01:51:32.800Z,8.90
2019-05-12T01:54:11.725Z,9.00
2019-05-12T01:56:34.355Z,9.00
2019-05-12T01:59:04.216Z,9.00
2019-05-12T02:01:34.104Z,9.00
2019-05-12T02:04:04.170Z,9.00
2019-05-12T02:06:34.064Z,8.90
2019-05-12T02:09:08.082Z,8.80
2019-05-12T02:11:38.179Z,8.80
2019-05-12T02:14:09.197Z,8.70
2019-05-12T02:16:39.148Z,8.70
2019-05-12T02:19:09.402Z,8.70
2019-05-12T02:21:39.181Z,8.80
2019-05-12T02:24:23.008Z,8.70
2019-05-12T02:26:40.558Z,8.60
2019-05-12T02:29:10.409Z,8.70
2019-05-12T02:31:40.187Z,8.70
2019-05-12T02:34:10.321Z,8.70
2019-05-12T02:36:40.309Z,8.70
2019-05-12T02:39:10.368Z,8.70
2019-05-12T02:41:40.431Z,8.60
2019-05-12T02:44:10.544Z,8.60
2019-05-12T02:46:40.500Z,8.60
2019-05-12T02:49:10.590Z,8.60
2019-05-12T02:51:41.030Z,8.60
2019-05-12T02:54:14.224Z,8.50
2019-05-12T02:56:44.978Z,8.50
2019-05-12T02:59:16.367Z,8.50
2019-05-12T03:02:09.954Z,8.50
2019-05-12T03:04:44.208Z,8.50
2019-05-12T03:07:15.298Z,8.50
2019-05-12T03:09:47.545Z,8.50
2019-05-12T03:12:17.586Z,8.50
2019-05-12T03:14:47.424Z,8.50
2019-05-12T03:17:17.145Z,8.50
2019-05-12T03:19:46.919Z,8.50
2019-05-12T03:22:17.789Z,8.50
2019-05-12T03:25:06.215Z,8.50
2019-05-12T03:27:25.638Z,8.40
2019-05-12T03:29:55.293Z,8.40
2019-05-12T03:32:27.831Z,8.30
2019-05-12T03:34:58.229Z,8.30
2019-05-12T03:37:31.305Z,8.30
2019-05-12T03:40:00.448Z,8.30
2019-05-12T03:42:30.488Z,8.30
2019-05-12T03:45:00.454Z,8.30
2019-05-12T03:47:30.422Z,8.20
2019-05-12T03:50:00.517Z,8.20
2019-05-12T03:52:30.527Z,8.20
2019-05-12T03:55:00.564Z,8.10
2019-05-12T03:57:30.540Z,8.20
2019-05-12T04:00:00.696Z,8.10
2019-05-12T04:02:30.583Z,8.10
2019-05-12T04:05:00.718Z,8.00
2019-05-12T04:07:30.570Z,8.00
2019-05-12T04:10:00.669Z,8.00
2019-05-12T04:12:30.763Z,8.00
2019-05-12T04:15:00.837Z,8.10
2019-05-12T04:17:30.619Z,8.00
2019-05-12T04:20:00.600Z,8.00
2019-05-12T04:22:35.237Z,8.00
2019-05-12T04:25:06.138Z,8.00
2019-05-12T04:27:36.286Z,8.00
2019-05-12T04:30:07.195Z,8.10
2019-05-12T04:32:37.135Z,8.00
2019-05-12T04:35:07.158Z,8.00
2019-05-12T04:37:37.218Z,8.00
2019-05-12T04:40:07.293Z,8.00
2019-05-12T04:42:37.361Z,8.00
2019-05-12T04:45:08.211Z,8.00
2019-05-12T04:47:37.915Z,8.00
2019-05-12T04:50:08.023Z,8.10
2019-05-12T04:52:37.686Z,8.00
2019-05-12T04:55:08.204Z,8.00
2019-05-12T04:57:38.229Z,8.10
2019-05-12T05:00:08.426Z,8.10
2019-05-12T05:02:38.546Z,8.10
2019-05-12T05:05:08.753Z,8.10
2019-05-12T05:07:38.758Z,8.10
2019-05-12T05:10:08.962Z,8.10
2019-05-12T05:12:38.798Z,8.20
2019-05-12T05:15:08.841Z,8.20
2019-05-12T05:17:38.741Z,8.10
2019-05-12T05:20:08.813Z,8.20
2019-05-12T05:22:38.802Z,8.20
2019-05-12T05:25:08.818Z,8.20
2019-05-12T05:27:38.502Z,8.20
2019-05-12T05:30:08.743Z,8.10
2019-05-12T05:32:39.084Z,8.20
2019-05-12T05:35:08.901Z,8.20
2019-05-12T05:37:41.451Z,8.30
2019-05-12T05:40:10.848Z,8.20
2019-05-12T05:42:40.709Z,8.30
2019-05-12T05:45:19.647Z,8.30
2019-05-12T05:47:44.292Z,8.20
2019-05-12T05:50:18.346Z,8.20
2019-05-12T05:52:45.521Z,8.20
2019-05-12T05:55:19.921Z,8.20
2019-05-12T05:58:25.913Z,8.20
2019-05-12T06:00:57.100Z,8.20
2019-05-12T06:03:27.913Z,8.20
2019-05-12T06:05:56.109Z,8.20
2019-05-12T06:09:28.668Z,8.20
2019-05-12T06:11:59.101Z,8.20
2019-05-12T06:14:29.799Z,8.20
2019-05-12T06:16:59.519Z,8.20
2019-05-12T06:19:29.209Z,8.10
2019-05-12T06:21:58.929Z,8.10
2019-05-12T06:24:28.625Z,8.00
2019-05-12T06:27:00.823Z,8.10
2019-05-12T06:29:29.802Z,8.00
2019-05-12T06:31:59.982Z,8.00
2019-05-12T06:34:30.925Z,8.10
2019-05-12T06:37:03.103Z,8.00
2019-05-12T06:39:34.364Z,8.00
2019-05-12T06:42:12.368Z,8.00
2019-05-12T06:44:35.987Z,8.00
2019-05-12T06:47:08.145Z,8.00
2019-05-12T06:49:37.187Z,8.00
2019-05-12T06:52:07.344Z,8.10
2019-05-12T06:54:37.087Z,8.00
2019-05-12T06:57:20.905Z,8.00
2019-05-12T06:59:41.994Z,8.10
2019-05-12T07:02:09.822Z,8.10
2019-05-12T07:04:41.203Z,8.10
2019-05-12T07:07:11.352Z,8.20
2019-05-12T07:09:51.936Z,8.20
2019-05-12T07:12:13.736Z,8.10
2019-05-12T07:14:44.073Z,8.10
2019-05-12T07:17:29.151Z,8.20
2019-05-12T07:19:58.859Z,8.20
2019-05-12T07:22:31.831Z,8.20
2019-05-12T07:25:00.024Z,8.30
2019-05-12T07:27:36.716Z,8.30
2019-05-12T07:30:01.315Z,8.40
2019-05-12T07:32:34.249Z,8.30
2019-05-12T07:35:07.055Z,8.30
2019-05-12T07:37:38.339Z,8.30
2019-05-12T07:40:08.131Z,8.30
2019-05-12T07:42:39.563Z,8.30
2019-05-12T07:45:11.464Z,8.30
2019-05-12T07:47:41.127Z,8.40
2019-05-12T07:50:16.255Z,8.40
2019-05-12T07:52:44.177Z,8.50
2019-05-12T07:55:14.862Z,8.50
2019-05-12T07:57:52.925Z,8.60
2019-05-12T08:00:21.154Z,8.60
2019-05-12T08:02:47.827Z,8.50
2019-05-12T08:05:20.072Z,8.60
2019-05-12T08:07:50.492Z,8.60
2019-05-12T08:10:20.457Z,8.60
2019-05-12T08:12:51.069Z,8.60
2019-05-12T08:15:24.496Z,8.60
2019-05-12T08:17:57.761Z,8.70
2019-05-12T08:20:54.048Z,8.80
2019-05-12T08:23:14.095Z,8.70
2019-05-12T08:25:44.006Z,8.60
2019-05-12T08:28:18.336Z,8.60
2019-05-12T08:30:51.833Z,8.60
2019-05-12T08:33:16.537Z,8.50
2019-05-12T08:35:46.219Z,8.50
2019-05-12T08:38:15.943Z,8.50
2019-05-12T08:40:50.705Z,8.40
2019-05-12T08:43:17.393Z,8.40
2019-05-12T08:45:47.122Z,8.40
2019-05-12T08:48:21.605Z,8.40
2019-05-12T08:50:48.634Z,8.40
2019-05-12T08:53:20.891Z,8.50
2019-05-12T08:55:50.083Z,8.50
2019-05-12T08:58:30.173Z,8.50
2019-05-12T09:00:51.390Z,8.40
2019-05-12T09:03:26.726Z,8.40
2019-05-12T09:05:53.701Z,8.40
2019-05-12T09:08:24.400Z,8.40
2019-05-12T09:10:55.559Z,8.40
2019-05-12T09:13:25.760Z,8.40
2019-05-12T09:15:55.626Z,8.40
2019-05-12T09:18:33.475Z,8.40
2019-05-12T09:21:05.236Z,8.30
2019-05-12T09:24:28.639Z,8.30
2019-05-12T09:27:33.524Z,8.30
2019-05-12T09:31:37.390Z,8.20
2019-05-12T09:34:24.047Z,8.10
2019-05-12T10:06:38.757Z,8.30
2019-05-12T10:09:19.652Z,8.20
2019-05-12T10:11:53.907Z,8.20
2019-05-12T10:14:20.072Z,8.20
2019-05-12T10:16:50.031Z,8.20
2019-05-12T10:19:20.004Z,8.30
2019-05-12T10:21:55.220Z,8.30
2019-05-12T10:24:21.398Z,8.40
2019-05-12T10:26:55.318Z,8.40
2019-05-12T10:29:30.686Z,8.40
2019-05-12T10:32:00.115Z,8.40
2019-05-12T10:34:36.029Z,8.50
2019-05-12T10:37:07.601Z,8.40
2019-05-12T10:39:39.869Z,8.40
2019-05-12T10:42:13.708Z,8.50
2019-05-12T10:44:46.877Z,8.50
2019-05-12T10:47:24.006Z,8.50
2019-05-12T10:49:53.958Z,8.50
2019-05-12T10:52:29.374Z,8.40
2019-05-12T10:54:58.024Z,8.50
2019-05-12T10:57:35.338Z,8.60
2019-05-12T11:00:06.556Z,8.50
2019-05-12T11:02:36.566Z,8.50
2019-05-12T11:05:21.242Z,8.50
2019-05-12T11:07:53.974Z,8.40
2019-05-12T11:10:24.191Z,8.40
2019-05-12T11:12:59.075Z,8.30
2019-05-12T11:15:29.125Z,8.30
2019-05-12T11:18:07.059Z,8.20
2019-05-12T11:20:38.851Z,8.30
2019-05-12T11:23:11.216Z,8.30
2019-05-12T11:25:44.486Z,8.30
2019-05-12T11:28:17.547Z,8.40
2019-05-12T11:30:55.319Z,8.40
2019-05-12T11:33:19.595Z,8.40
2019-05-12T11:35:53.878Z,8.30
2019-05-12T11:38:24.404Z,8.40
2019-05-12T11:40:56.334Z,8.30
2019-05-12T11:43:25.685Z,8.20
2019-05-12T11:45:55.464Z,8.20
2019-05-12T11:48:25.185Z,8.10
2019-05-12T11:50:54.901Z,8.20
2019-05-12T11:53:30.973Z,8.20
2019-05-12T11:55:56.121Z,8.20
2019-05-12T11:58:25.889Z,8.20
2019-05-12T12:00:58.572Z,8.20
2019-05-12T12:03:28.603Z,8.20
2019-05-12T12:05:58.358Z,8.20
2019-05-12T12:08:33.657Z,8.20
2019-05-12T12:11:01.202Z,8.30
2019-05-12T12:13:30.868Z,8.30
2019-05-12T12:16:06.029Z,8.30
2019-05-12T12:18:33.782Z,8.30
2019-05-12T12:21:07.531Z,8.30
2019-05-12T12:23:34.987Z,8.30
2019-05-12T12:26:04.739Z,8.40
2019-05-12T12:28:34.559Z,8.50
2019-05-12T12:31:07.485Z,8.50
2019-05-12T12:33:39.251Z,8.40
2019-05-12T12:36:08.896Z,8.30
2019-05-12T12:38:38.698Z,8.30
2019-05-12T12:41:08.384Z,8.20
2019-05-12T12:43:38.145Z,8.20
2019-05-12T12:46:18.001Z,8.20
2019-05-12T12:48:44.804Z,8.30
2019-05-12T12:51:17.382Z,8.30
2019-05-12T12:53:45.867Z,8.40
2019-05-12T12:56:24.332Z,8.40
2019-05-12T12:58:47.180Z,8.40
2019-05-12T13:01:26.722Z,8.30
2019-05-12T13:03:48.342Z,8.40
2019-05-12T13:06:18.049Z,8.30
2019-05-12T13:08:47.885Z,8.40
2019-05-12T13:11:30.490Z,8.40
2019-05-12T13:13:50.136Z,8.50
2019-05-12T13:16:19.865Z,8.60
2019-05-12T13:18:49.623Z,8.70
2019-05-12T13:21:20.866Z,8.70
2019-05-12T13:23:51.179Z,8.70
2019-05-12T13:26:20.966Z,8.70
2019-05-12T13:28:53.156Z,8.60
2019-05-12T13:31:24.199Z,8.50
2019-05-12T13:33:54.788Z,8.40
2019-05-12T13:36:29.379Z,8.30
2019-05-12T13:38:56.253Z,8.40
2019-05-12T13:41:29.229Z,8.40
2019-05-12T13:44:00.034Z,8.40
2019-05-12T13:46:29.898Z,8.30
2019-05-12T13:48:59.952Z,8.30
2019-05-12T13:51:29.741Z,8.30
2019-05-12T13:53:59.510Z,8.30
2019-05-12T13:56:32.961Z,8.30
2019-05-12T13:59:00.551Z,8.30
2019-05-12T14:01:32.068Z,8.30
2019-05-12T14:04:04.032Z,8.20
2019-05-12T14:06:37.974Z,8.30
2019-05-12T14:09:08.227Z,8.30
2019-05-12T14:11:38.026Z,8.30
2019-05-12T14:14:11.378Z,8.30
2019-05-12T14:16:44.541Z,8.40
2019-05-12T14:19:10.429Z,8.30
2019-05-12T14:21:42.518Z,8.30
2019-05-12T14:24:13.749Z,8.40
2019-05-12T14:26:45.420Z,8.30
2019-05-12T14:29:14.230Z,8.40
2019-05-12T14:31:51.098Z,8.50
2019-05-12T14:34:16.547Z,8.50
2019-05-12T14:36:46.888Z,8.50
2019-05-12T14:39:16.602Z,8.50
2019-05-12T14:41:53.287Z,8.50
2019-05-12T14:44:18.808Z,8.50
2019-05-12T14:46:50.659Z,8.40
2019-05-12T14:49:20.425Z,8.40
2019-05-12T14:51:53.536Z,8.40
2019-05-12T14:54:23.927Z,8.40
2019-05-12T14:56:57.652Z,8.40
2019-05-12T14:59:30.167Z,8.50
2019-05-12T15:01:59.692Z,8.40
2019-05-12T15:04:30.836Z,8.40
2019-05-12T15:07:05.894Z,8.40
2019-05-12T15:09:34.008Z,8.40
2019-05-12T15:12:03.679Z,8.40
2019-05-12T15:14:37.916Z,8.40
2019-05-12T15:17:06.342Z,8.40
2019-05-12T15:19:36.057Z,8.50
2019-05-12T15:22:07.780Z,8.50
2019-05-12T15:25:05.887Z,8.50
2019-05-12T15:27:45.238Z,8.50
2019-05-12T15:30:20.356Z,8.50
2019-05-12T15:32:42.138Z,8.50
2019-05-12T15:35:13.697Z,8.50
2019-05-12T15:37:43.825Z,8.40
2019-05-12T15:40:14.974Z,8.40
2019-05-12T15:42:45.459Z,8.40
2019-05-12T15:45:17.103Z,8.40
2019-05-12T15:47:46.991Z,8.40
2019-05-12T15:50:16.954Z,8.50
2019-05-12T15:52:46.648Z,8.40
2019-05-12T15:55:18.261Z,8.40
2019-05-12T15:57:47.809Z,8.40
2019-05-12T16:00:18.010Z,8.40
2019-05-12T16:02:47.843Z,8.40
2019-05-12T16:05:20.085Z,8.50
2019-05-12T16:07:49.163Z,8.50
2019-05-12T16:10:19.323Z,8.50
2019-05-12T16:12:57.912Z,8.50
2019-05-12T16:15:29.263Z,8.50
2019-05-12T16:18:05.803Z,8.60
2019-05-12T16:20:37.459Z,8.60
2019-05-12T16:23:07.539Z,8.60
2019-05-12T16:25:39.630Z,8.50
2019-05-12T16:28:17.581Z,8.60
2019-05-12T16:30:46.882Z,8.50
2019-05-12T16:33:20.646Z,8.50
2019-05-12T16:35:47.051Z,8.50
2019-05-12T16:38:19.934Z,8.50
2019-05-12T16:40:49.834Z,8.60
2019-05-12T16:43:19.560Z,8.60
2019-05-12T16:45:49.288Z,8.60
2019-05-12T16:48:29.346Z,8.60
2019-05-12T16:50:51.771Z,8.60
2019-05-12T16:53:27.526Z,8.60
2019-05-12T16:55:53.357Z,8.60
2019-05-12T16:58:24.401Z,8.60
2019-05-12T17:00:54.546Z,8.50
2019-05-12T17:03:24.306Z,8.40
2019-05-12T17:05:55.740Z,8.30
2019-05-12T17:08:25.508Z,8.40
2019-05-12T17:11:01.015Z,8.30
2019-05-12T17:13:26.728Z,8.30
2019-05-12T17:16:00.073Z,8.30
2019-05-12T17:18:28.058Z,8.40
2019-05-12T17:20:57.762Z,8.30
2019-05-12T17:23:27.484Z,8.40
2019-05-12T17:25:57.243Z,8.30
2019-05-12T17:28:26.951Z,8.40
2019-05-12T17:30:56.689Z,8.40
2019-05-12T17:33:27.622Z,8.30
2019-05-12T17:36:03.054Z,8.30
2019-05-12T17:38:30.556Z,8.30
2019-05-12T17:41:00.897Z,8.40
2019-05-12T17:43:30.823Z,8.40
2019-05-12T17:46:03.648Z,8.30
2019-05-12T17:48:32.121Z,8.40
2019-05-12T17:51:03.312Z,8.30
2019-05-12T17:53:36.175Z,8.40
2019-05-12T17:56:06.497Z,8.30
2019-05-12T17:58:44.224Z,8.30
2019-05-12T18:01:07.783Z,8.30
2019-05-12T18:03:39.392Z,8.40
2019-05-12T18:06:11.501Z,8.40
2019-05-12T18:08:41.230Z,8.50
2019-05-12T18:11:11.832Z,8.50
2019-05-12T18:13:42.681Z,8.50
2019-05-12T18:16:20.370Z,8.50
2019-05-12T18:18:48.294Z,8.60
2019-05-12T18:21:21.480Z,8.50
2019-05-12T18:23:49.736Z,8.40
2019-05-12T18:26:20.658Z,8.40
2019-05-12T18:28:54.403Z,8.40
2019-05-12T18:31:22.054Z,8.40
2019-05-12T18:33:56.715Z,8.50
2019-05-12T18:36:25.457Z,8.50
2019-05-12T18:39:11.679Z,8.50
2019-05-12T18:41:50.728Z,8.50
2019-05-12T18:44:31.360Z,8.40
2019-05-12T18:46:59.893Z,8.30
2019-05-12T18:49:42.012Z,8.30
2019-05-12T18:52:15.984Z,8.30
2019-05-12T18:54:52.335Z,8.30
2019-05-12T18:57:33.645Z,8.20
2019-05-12T18:59:57.130Z,8.10
2019-05-12T19:02:28.287Z,8.20
2019-05-12T19:04:57.094Z,8.20
2019-05-12T19:07:39.790Z,8.30
2019-05-12T19:10:05.689Z,8.20
2019-05-12T19:12:38.029Z,8.20
2019-05-12T19:15:17.331Z,8.20
2019-05-12T19:20:58.470Z,8.20
2019-05-12T19:21:23.721Z,8.20
2019-05-12T19:23:35.004Z,8.20
2019-05-12T19:26:04.818Z,8.10
2019-05-12T19:28:34.517Z,8.20
2019-05-12T19:31:17.036Z,8.10
2019-05-12T19:33:56.651Z,8.00
2019-05-12T19:36:18.215Z,8.00
2019-05-12T19:38:50.042Z,8.00
2019-05-12T19:41:24.494Z,8.10
2019-05-12T19:43:56.152Z,8.10
2019-05-12T19:46:26.135Z,8.20
2019-05-12T19:48:56.077Z,8.20
2019-05-12T19:51:28.274Z,8.20
2019-05-12T19:53:57.893Z,8.20
2019-05-12T19:56:34.813Z,8.30
2019-05-12T19:59:04.210Z,8.30
2019-05-12T20:01:34.570Z,8.30
2019-05-12T20:04:07.362Z,8.30
2019-05-12T20:06:43.953Z,8.30
2019-05-12T20:09:15.638Z,8.40
2019-05-12T20:15:24.126Z,8.40
2019-05-12T20:18:11.606Z,8.40
2019-05-12T20:20:49.171Z,8.30
2019-05-12T20:23:32.946Z,8.30
2019-05-12T20:26:26.901Z,8.30
2019-05-12T20:29:04.393Z,8.20
2019-05-12T20:31:53.778Z,8.30
2019-05-12T20:34:44.089Z,8.20
2019-05-12T20:37:13.088Z,8.20
2019-05-12T20:40:05.469Z,8.30
2019-05-12T20:43:07.335Z,8.20
2019-05-12T20:45:53.770Z,8.20
2019-05-12T20:48:29.206Z,8.20
2019-05-12T20:51:15.431Z,8.20
2019-05-12T20:54:16.849Z,8.30
2019-05-12T20:57:23.139Z,8.30
2019-05-12T21:00:26.567Z,8.20
2019-05-12T21:03:04.909Z,8.20
2019-05-12T21:05:58.163Z,8.10
2019-05-12T21:08:33.822Z,8.20
2019-05-12T21:11:18.573Z,8.10
2019-05-12T21:14:01.103Z,8.10
2019-05-12T21:16:38.961Z,8.10
2019-05-12T21:19:14.351Z,8.10
2019-05-12T21:21:51.146Z,8.10
2019-05-12T21:27:35.196Z,8.20
2019-05-12T21:30:29.272Z,8.20
2019-05-12T21:33:19.746Z,8.10
2019-05-12T21:36:03.653Z,8.10
2019-05-12T21:41:50.725Z,8.00
2019-05-12T21:47:42.487Z,8.00
2019-05-12T21:50:14.007Z,8.10
2019-05-12T21:53:10.193Z,8.10
2019-05-12T21:59:07.212Z,8.20
2019-05-12T22:02:04.630Z,8.10
2019-05-12T22:04:49.286Z,8.10
2019-05-12T22:07:29.580Z,8.00
2019-05-12T22:10:10.318Z,7.90
2019-05-12T22:13:00.593Z,7.90
2019-05-12T22:16:07.941Z,7.90
2019-05-12T22:18:24.411Z,7.90
2019-05-12T22:21:04.484Z,7.90
2019-05-12T22:23:56.356Z,7.80
2019-05-12T22:26:39.735Z,7.80
2019-05-12T22:29:21.053Z,7.80
2019-05-12T22:31:54.179Z,7.70
2019-05-12T22:34:40.340Z,7.70
2019-05-12T22:37:19.611Z,7.60
2019-05-12T22:39:55.000Z,7.50
2019-05-12T22:43:03.873Z,7.60
2019-05-12T22:45:34.929Z,7.60
2019-05-12T22:48:04.931Z,7.60
2019-05-12T22:51:14.242Z,7.60
2019-05-12T22:53:51.217Z,7.70
2019-05-12T22:56:34.100Z,7.70
2019-05-12T22:59:17.210Z,7.70
2019-05-12T23:01:59.792Z,7.80
2019-05-12T23:04:51.194Z,7.70
2019-05-12T23:07:29.925Z,7.80
2019-05-12T23:10:14.362Z,7.80
2019-05-12T23:13:01.926Z,7.70
2019-05-12T23:15:45.201Z,7.70
2019-05-12T23:18:26.895Z,7.70
2019-05-12T23:21:13.497Z,7.60
2019-05-12T23:23:50.071Z,7.60
2019-05-12T23:26:18.212Z,7.60
2019-05-12T23:28:54.388Z,7.50
2019-05-12T23:31:35.928Z,7.50
2019-05-12T23:34:06.407Z,7.50
2019-05-12T23:36:44.022Z,7.40
2019-05-12T23:39:26.289Z,7.40
2019-05-12T23:42:01.025Z,7.40
2019-05-12T23:44:56.515Z,7.40
2019-05-12T23:47:34.316Z,7.50
2019-05-12T23:50:16.253Z,7.50
2019-05-12T23:53:09.954Z,7.50
2019-05-12T23:55:47.332Z,7.50
2019-05-12T23:58:33.865Z,7.50
